sensor_id;sensor_type;location;lat;lon;timestamp;pressure;altitude;pressure_sealevel;temperature;humidity
54910;BME280;63189;51.240;9.964;2022-12-07T00:01:40;97743.75;;;0.81;100.00
54910;BME280;63189;51.240;9.964;2022-12-07T00:04:09;97735.22;;;0.79;100.00
54910;BME280;63189;51.240;9.964;2022-12-07T00:06:44;97742.03;;;0.77;100.00
54910;BME280;63189;51.240;9.964;2022-12-07T00:09:12;97735.19;;;0.73;100.00
54910;BME280;63189;51.240;9.964;2022-12-07T00:11:37;97730.06;;;0.73;100.00
54910;BME280;63189;51.240;9.964;2022-12-07T00:14:06;97729.22;;;0.74;100.00
54910;BME280;63189;51.240;9.964;2022-12-07T00:16:33;97722.34;;;0.72;100.00
54910;BME280;63189;51.240;9.964;2022-12-07T00:18:59;97713.78;;;0.71;100.00
54910;BME280;63189;51.240;9.964;2022-12-07T00:21:27;97725.75;;;0.72;100.00
54910;BME280;63189;51.240;9.964;2022-12-07T00:23:53;97731.75;;;0.71;100.00
54910;BME280;63189;51.240;9.964;2022-12-07T00:26:21;97726.59;;;0.71;100.00
54910;BME280;63189;51.240;9.964;2022-12-07T00:28:49;97719.78;;;0.70;100.00
54910;BME280;63189;51.240;9.964;2022-12-07T00:31:16;97710.34;;;0.71;100.00
54910;BME280;63189;51.240;9.964;2022-12-07T00:33:43;97716.34;;;0.73;100.00
54910;BME280;63189;51.240;9.964;2022-12-07T00:36:11;97711.22;;;0.70;100.00
54910;BME280;63189;51.240;9.964;2022-12-07T00:38:37;97705.22;;;0.66;100.00
54910;BME280;63189;51.240;9.964;2022-12-07T00:41:06;97698.38;;;0.64;100.00
54910;BME280;63189;51.240;9.964;2022-12-07T00:43:32;97695.78;;;0.62;100.00
54910;BME280;63189;51.240;9.964;2022-12-07T00:45:57;97698.38;;;0.64;100.00
54910;BME280;63189;51.240;9.964;2022-12-07T00:48:24;97694.09;;;0.64;100.00
54910;BME280;63189;51.240;9.964;2022-12-07T00:50:49;97695.81;;;0.65;100.00
54910;BME280;63189;51.240;9.964;2022-12-07T00:53:15;97688.13;;;0.67;100.00
54910;BME280;63189;51.240;9.964;2022-12-07T00:55:40;97690.69;;;0.70;100.00
54910;BME280;63189;51.240;9.964;2022-12-07T00:58:06;97686.41;;;0.67;100.00
54910;BME280;63189;51.240;9.964;2022-12-07T01:00:32;97679.56;;;0.66;100.00
54910;BME280;63189;51.240;9.964;2022-12-07T01:02:58;97684.69;;;0.66;100.00
54910;BME280;63189;51.240;9.964;2022-12-07T01:05:23;97677.84;;;0.67;100.00
54910;BME280;63189;51.240;9.964;2022-12-07T01:07:48;97677.00;;;0.68;100.00
54910;BME280;63189;51.240;9.964;2022-12-07T01:10:14;97669.31;;;0.69;100.00
54910;BME280;63189;51.240;9.964;2022-12-07T01:12:40;97671.88;;;0.72;100.00
54910;BME280;63189;51.240;9.964;2022-12-07T01:15:06;97663.31;;;0.70;100.00
54910;BME280;63189;51.240;9.964;2022-12-07T01:17:31;97662.47;;;0.70;100.00
54910;BME280;63189;51.240;9.964;2022-12-07T01:19:57;97657.34;;;0.73;100.00
54910;BME280;63189;51.240;9.964;2022-12-07T01:22:22;97656.47;;;0.72;100.00
54910;BME280;63189;51.240;9.964;2022-12-07T01:24:47;97659.09;;;0.74;100.00
54910;BME280;63189;51.240;9.964;2022-12-07T01:27:13;97651.38;;;0.74;100.00
54910;BME280;63189;51.240;9.964;2022-12-07T01:29:39;97648.81;;;0.74;100.00
54910;BME280;63189;51.240;9.964;2022-12-07T01:32:04;97646.22;;;0.72;100.00
54910;BME280;63189;51.240;9.964;2022-12-07T01:34:30;97643.69;;;0.74;100.00
54910;BME280;63189;51.240;9.964;2022-12-07T01:36:55;97648.78;;;0.72;100.00
54910;BME280;63189;51.240;9.964;2022-12-07T01:39:20;97645.41;;;0.73;100.00
54910;BME280;63189;51.240;9.964;2022-12-07T01:41:46;97649.66;;;0.74;100.00
54910;BME280;63189;51.240;9.964;2022-12-07T01:46:48;97650.53;;;0.79;100.00
54910;BME280;63189;51.240;9.964;2022-12-07T01:49:29;97653.09;;;0.79;100.00
54910;BME280;63189;51.240;9.964;2022-12-07T01:52:03;97648.81;;;0.80;100.00
54910;BME280;63189;51.240;9.964;2022-12-07T01:54:32;97648.81;;;0.83;100.00
54910;BME280;63189;51.240;9.964;2022-12-07T01:56:59;97646.28;;;0.88;100.00
54910;BME280;63189;51.240;9.964;2022-12-07T01:59:25;97648.84;;;0.92;100.00
54910;BME280;63189;51.240;9.964;2022-12-07T02:01:52;97650.56;;;0.92;100.00
54910;BME280;63189;51.240;9.964;2022-12-07T02:04:18;97637.72;;;0.92;100.00
54910;BME280;63189;51.240;9.964;2022-12-07T02:06:44;97656.53;;;0.91;100.00
54910;BME280;63189;51.240;9.964;2022-12-07T02:09:11;97653.16;;;0.96;100.00
54910;BME280;63189;51.240;9.964;2022-12-07T02:11:37;97647.16;;;0.97;100.00
54910;BME280;63189;51.240;9.964;2022-12-07T02:14:03;97639.47;;;1.00;100.00
54910;BME280;63189;51.240;9.964;2022-12-07T02:20:00;97637.75;;;1.04;100.00
54910;BME280;63189;51.240;9.964;2022-12-07T02:22:42;97630.94;;;1.06;100.00
54910;BME280;63189;51.240;9.964;2022-12-07T02:27:53;97626.66;;;1.08;100.00
54910;BME280;63189;51.240;9.964;2022-12-07T02:30:22;97624.06;;;1.11;100.00
54910;BME280;63189;51.240;9.964;2022-12-07T02:35:40;97617.25;;;1.18;100.00
54910;BME280;63189;51.240;9.964;2022-12-07T02:38:19;97612.97;;;1.21;100.00
54910;BME280;63189;51.240;9.964;2022-12-07T02:41:13;97617.25;;;1.25;100.00
54910;BME280;63189;51.240;9.964;2022-12-07T02:43:44;97611.25;;;1.28;100.00
54910;BME280;63189;51.240;9.964;2022-12-07T02:46:17;97617.25;;;1.31;100.00
54910;BME280;63189;51.240;9.964;2022-12-07T02:48:45;97608.69;;;1.32;100.00
54910;BME280;63189;51.240;9.964;2022-12-07T02:51:11;97618.13;;;1.36;100.00
54910;BME280;63189;51.240;9.964;2022-12-07T02:53:41;97607.84;;;1.36;100.00
54910;BME280;63189;51.240;9.964;2022-12-07T03:02:01;97613.81;;;1.41;100.00
54910;BME280;63189;51.240;9.964;2022-12-07T03:07:38;97617.28;;;1.47;100.00
54910;BME280;63189;51.240;9.964;2022-12-07T03:13:10;97609.56;;;1.48;100.00
54910;BME280;63189;51.240;9.964;2022-12-07T03:15:50;97609.56;;;1.48;100.00
54910;BME280;63189;51.240;9.964;2022-12-07T03:18:22;97608.72;;;1.48;100.00
54910;BME280;63189;51.240;9.964;2022-12-07T03:20:50;97605.28;;;1.49;100.00
54910;BME280;63189;51.240;9.964;2022-12-07T03:23:18;97609.56;;;1.50;100.00
54910;BME280;63189;51.240;9.964;2022-12-07T03:25:48;97603.56;;;1.48;100.00
54910;BME280;63189;51.240;9.964;2022-12-07T03:28:18;97605.25;;;1.52;100.00
54910;BME280;63189;51.240;9.964;2022-12-07T03:31:09;97606.97;;;1.53;100.00
54910;BME280;63189;51.240;9.964;2022-12-07T03:33:42;97605.25;;;1.55;100.00
54910;BME280;63189;51.240;9.964;2022-12-07T03:36:18;97604.44;;;1.57;100.00
54910;BME280;63189;51.240;9.964;2022-12-07T03:38:54;97600.13;;;1.58;100.00
54910;BME280;63189;51.240;9.964;2022-12-07T03:41:25;97594.13;;;1.56;100.00
54910;BME280;63189;51.240;9.964;2022-12-07T03:43:54;97588.13;;;1.60;100.00
54910;BME280;63189;51.240;9.964;2022-12-07T03:49:09;97597.56;;;1.61;100.00
54910;BME280;63189;51.240;9.964;2022-12-07T03:51:51;97589.84;;;1.62;100.00
54910;BME280;63189;51.240;9.964;2022-12-07T03:54:28;97593.25;;;1.66;100.00
54910;BME280;63189;51.240;9.964;2022-12-07T03:56:55;97595.00;;;1.67;100.00
54910;BME280;63189;51.240;9.964;2022-12-07T03:59:22;97591.53;;;1.65;100.00
54910;BME280;63189;51.240;9.964;2022-12-07T04:01:54;97588.13;;;1.61;100.00
54910;BME280;63189;51.240;9.964;2022-12-07T04:04:20;97588.97;;;1.65;100.00
54910;BME280;63189;51.240;9.964;2022-12-07T04:06:45;97596.69;;;1.65;100.00
54910;BME280;63189;51.240;9.964;2022-12-07T04:09:10;97592.41;;;1.64;100.00
54910;BME280;63189;51.240;9.964;2022-12-07T04:11:36;97600.97;;;1.66;100.00
54910;BME280;63189;51.240;9.964;2022-12-07T04:14:01;97594.09;;;1.66;100.00
54910;BME280;63189;51.240;9.964;2022-12-07T04:16:49;97588.97;;;1.66;100.00
54910;BME280;63189;51.240;9.964;2022-12-07T04:19:16;97595.84;;;1.67;100.00
54910;BME280;63189;51.240;9.964;2022-12-07T04:21:42;97593.28;;;1.67;100.00
54910;BME280;63189;51.240;9.964;2022-12-07T04:24:07;97594.13;;;1.68;100.00
54910;BME280;63189;51.240;9.964;2022-12-07T04:26:33;97602.69;;;1.67;100.00
54910;BME280;63189;51.240;9.964;2022-12-07T04:28:58;97608.69;;;1.69;100.00
54910;BME280;63189;51.240;9.964;2022-12-07T04:31:23;97600.13;;;1.67;100.00
54910;BME280;63189;51.240;9.964;2022-12-07T04:33:49;97597.53;;;1.65;100.00
54910;BME280;63189;51.240;9.964;2022-12-07T04:36:14;97597.56;;;1.67;100.00
54910;BME280;63189;51.240;9.964;2022-12-07T04:38:39;97600.13;;;1.70;100.00
54910;BME280;63189;51.240;9.964;2022-12-07T04:41:09;97598.41;;;1.69;100.00
54910;BME280;63189;51.240;9.964;2022-12-07T04:43:35;97594.97;;;1.70;100.00
54910;BME280;63189;51.240;9.964;2022-12-07T04:46:01;97598.41;;;1.72;100.00
54910;BME280;63189;51.240;9.964;2022-12-07T04:48:26;97594.13;;;1.71;100.00
54910;BME280;63189;51.240;9.964;2022-12-07T04:50:52;97600.97;;;1.75;100.00
54910;BME280;63189;51.240;9.964;2022-12-07T04:53:17;97589.81;;;1.73;100.00
54910;BME280;63189;51.240;9.964;2022-12-07T04:55:44;97602.66;;;1.74;100.00
54910;BME280;63189;51.240;9.964;2022-12-07T04:58:09;97596.66;;;1.77;100.00
54910;BME280;63189;51.240;9.964;2022-12-07T05:00:34;97596.69;;;1.79;100.00
54910;BME280;63189;51.240;9.964;2022-12-07T05:02:59;97594.97;;;1.79;100.00
54910;BME280;63189;51.240;9.964;2022-12-07T05:05:25;97594.13;;;1.79;100.00
54910;BME280;63189;51.240;9.964;2022-12-07T05:07:50;97586.41;;;1.80;100.00
54910;BME280;63189;51.240;9.964;2022-12-07T05:10:16;97590.66;;;1.77;100.00
54910;BME280;63189;51.240;9.964;2022-12-07T05:12:41;97593.25;;;1.78;100.00
54910;BME280;63189;51.240;9.964;2022-12-07T05:15:07;97595.81;;;1.77;100.00
54910;BME280;63189;51.240;9.964;2022-12-07T05:17:32;97603.53;;;1.80;100.00
54910;BME280;63189;51.240;9.964;2022-12-07T05:19:58;97601.81;;;1.80;100.00
54910;BME280;63189;51.240;9.964;2022-12-07T05:22:23;97596.69;;;1.80;100.00
54910;BME280;63189;51.240;9.964;2022-12-07T05:24:53;97600.94;;;1.83;100.00
54910;BME280;63189;51.240;9.964;2022-12-07T05:27:18;97600.09;;;1.85;100.00
54910;BME280;63189;51.240;9.964;2022-12-07T05:29:43;97595.81;;;1.84;100.00
54910;BME280;63189;51.240;9.964;2022-12-07T05:32:09;97602.66;;;1.82;100.00
54910;BME280;63189;51.240;9.964;2022-12-07T05:34:34;97605.25;;;1.88;100.00
54910;BME280;63189;51.240;9.964;2022-12-07T05:36:59;97600.09;;;1.88;100.00
54910;BME280;63189;51.240;9.964;2022-12-07T05:39:25;97595.81;;;1.90;100.00
54910;BME280;63189;51.240;9.964;2022-12-07T05:41:50;97600.09;;;1.91;100.00
54910;BME280;63189;51.240;9.964;2022-12-07T05:44:34;97600.09;;;1.91;100.00
54910;BME280;63189;51.240;9.964;2022-12-07T05:46:59;97591.50;;;1.92;100.00
54910;BME280;63189;51.240;9.964;2022-12-07T05:49:24;97587.22;;;1.93;100.00
54910;BME280;63189;51.240;9.964;2022-12-07T05:51:49;97589.78;;;1.94;100.00
54910;BME280;63189;51.240;9.964;2022-12-07T05:54:15;97581.22;;;1.94;100.00
54910;BME280;63189;51.240;9.964;2022-12-07T05:56:40;97585.50;;;1.92;100.00
54910;BME280;63189;51.240;9.964;2022-12-07T05:59:08;97588.94;;;1.91;100.00
54910;BME280;63189;51.240;9.964;2022-12-07T06:01:57;97575.22;;;1.92;100.00
54910;BME280;63189;51.240;9.964;2022-12-07T06:04:24;97584.66;;;1.91;100.00
54910;BME280;63189;51.240;9.964;2022-12-07T06:06:50;97586.38;;;1.92;100.00
54910;BME280;63189;51.240;9.964;2022-12-07T06:09:16;97578.66;;;1.92;100.00
54910;BME280;63189;51.240;9.964;2022-12-07T06:11:41;97580.38;;;1.92;100.00
54910;BME280;63189;51.240;9.964;2022-12-07T06:14:25;97579.53;;;1.91;100.00
54910;BME280;63189;51.240;9.964;2022-12-07T06:16:50;97576.09;;;1.89;100.00
54910;BME280;63189;51.240;9.964;2022-12-07T06:19:16;97576.94;;;1.91;100.00
54910;BME280;63189;51.240;9.964;2022-12-07T06:21:41;97581.22;;;1.92;100.00
54910;BME280;63189;51.240;9.964;2022-12-07T06:24:10;97572.66;;;1.93;100.00
54910;BME280;63189;51.240;9.964;2022-12-07T06:26:35;97570.09;;;1.92;100.00
54910;BME280;63189;51.240;9.964;2022-12-07T06:29:01;97573.50;;;1.94;100.00
54910;BME280;63189;51.240;9.964;2022-12-07T06:31:26;97570.09;;;1.93;100.00
54910;BME280;63189;51.240;9.964;2022-12-07T06:33:51;97564.09;;;1.91;100.00
54910;BME280;63189;51.240;9.964;2022-12-07T06:36:21;97562.41;;;1.89;100.00
54910;BME280;63189;51.240;9.964;2022-12-07T06:38:46;97556.38;;;1.85;100.00
54910;BME280;63189;51.240;9.964;2022-12-07T06:41:12;97570.09;;;1.87;100.00
54910;BME280;63189;51.240;9.964;2022-12-07T06:43:37;97564.09;;;1.87;100.00
54910;BME280;63189;51.240;9.964;2022-12-07T06:46:03;97568.38;;;1.86;100.00
54910;BME280;63189;51.240;9.964;2022-12-07T06:48:28;97564.94;;;1.86;100.00
54910;BME280;63189;51.240;9.964;2022-12-07T06:50:54;97573.53;;;1.85;100.00
54910;BME280;63189;51.240;9.964;2022-12-07T06:53:19;97570.97;;;1.83;100.00
54910;BME280;63189;51.240;9.964;2022-12-07T06:55:44;97587.25;;;1.79;100.00
54910;BME280;63189;51.240;9.964;2022-12-07T06:58:10;97589.84;;;1.79;100.00
54910;BME280;63189;51.240;9.964;2022-12-07T07:00:35;97596.69;;;1.79;100.00
54910;BME280;63189;51.240;9.964;2022-12-07T07:03:01;97601.81;;;1.77;100.00
54910;BME280;63189;51.240;9.964;2022-12-07T07:05:26;97592.38;;;1.74;100.00
54910;BME280;63189;51.240;9.964;2022-12-07T07:07:51;97593.25;;;1.75;100.00
54910;BME280;63189;51.240;9.964;2022-12-07T07:10:17;97590.69;;;1.78;100.00
54910;BME280;63189;51.240;9.964;2022-12-07T07:12:42;97596.69;;;1.79;100.00
54910;BME280;63189;51.240;9.964;2022-12-07T07:15:08;97600.97;;;1.81;100.00
54910;BME280;63189;51.240;9.964;2022-12-07T07:17:34;97594.97;;;1.82;100.00
54910;BME280;63189;51.240;9.964;2022-12-07T07:20:02;97599.22;;;1.83;100.00
54910;BME280;63189;51.240;9.964;2022-12-07T07:22:28;97597.53;;;1.84;100.00
54910;BME280;63189;51.240;9.964;2022-12-07T07:24:53;97609.53;;;1.82;100.00
54910;BME280;63189;51.240;9.964;2022-12-07T07:27:18;97593.25;;;1.81;100.00
54910;BME280;63189;51.240;9.964;2022-12-07T07:29:43;97591.53;;;1.83;100.00
54910;BME280;63189;51.240;9.964;2022-12-07T07:32:09;97600.94;;;1.86;100.00
54910;BME280;63189;51.240;9.964;2022-12-07T07:34:34;97594.09;;;1.88;100.00
54910;BME280;63189;51.240;9.964;2022-12-07T07:37:00;97598.38;;;1.89;100.00
54910;BME280;63189;51.240;9.964;2022-12-07T07:39:25;97600.94;;;1.90;100.00
54910;BME280;63189;51.240;9.964;2022-12-07T07:41:50;97594.94;;;1.91;100.00
54910;BME280;63189;51.240;9.964;2022-12-07T07:44:16;97594.09;;;1.92;100.00
54910;BME280;63189;51.240;9.964;2022-12-07T07:46:41;97600.06;;;1.94;100.00
54910;BME280;63189;51.240;9.964;2022-12-07T07:49:08;97591.50;;;1.95;100.00
54910;BME280;63189;51.240;9.964;2022-12-07T07:51:34;97599.22;;;1.95;100.00
54910;BME280;63189;51.240;9.964;2022-12-07T07:53:59;97593.22;;;1.93;100.00
54910;BME280;63189;51.240;9.964;2022-12-07T07:56:24;97591.50;;;1.95;100.00
54910;BME280;63189;51.240;9.964;2022-12-07T07:58:53;97606.94;;;1.98;100.00
54910;BME280;63189;51.240;9.964;2022-12-07T08:01:18;97608.63;;;1.98;100.00
54910;BME280;63189;51.240;9.964;2022-12-07T08:03:45;97610.34;;;1.97;100.00
54910;BME280;63189;51.240;9.964;2022-12-07T08:06:11;97596.63;;;1.95;100.00
54910;BME280;63189;51.240;9.964;2022-12-07T08:08:36;97618.94;;;1.99;100.00
54910;BME280;63189;51.240;9.964;2022-12-07T08:11:08;97606.94;;;1.98;100.00
54910;BME280;63189;51.240;9.964;2022-12-07T08:13:33;97612.91;;;1.96;100.00
54910;BME280;63189;51.240;9.964;2022-12-07T08:16:04;97611.22;;;2.01;100.00
54910;BME280;63189;51.240;9.964;2022-12-07T08:18:30;97617.19;;;2.01;100.00
54910;BME280;63189;51.240;9.964;2022-12-07T08:21:01;97612.06;;;2.03;100.00
54910;BME280;63189;51.240;9.964;2022-12-07T08:23:26;97606.88;;;2.08;100.00
54910;BME280;63189;51.240;9.964;2022-12-07T08:25:52;97612.03;;;2.14;100.00
54910;BME280;63189;51.240;9.964;2022-12-07T08:28:17;97612.03;;;2.20;100.00
54910;BME280;63189;51.240;9.964;2022-12-07T08:30:43;97614.56;;;2.18;100.00
54910;BME280;63189;51.240;9.964;2022-12-07T08:33:09;97618.00;;;2.17;100.00
54910;BME280;63189;51.240;9.964;2022-12-07T08:35:35;97621.44;;;2.16;100.00
54910;BME280;63189;51.240;9.964;2022-12-07T08:38:00;97621.44;;;2.16;100.00
54910;BME280;63189;51.240;9.964;2022-12-07T08:40:27;97622.28;;;2.17;100.00
54910;BME280;63189;51.240;9.964;2022-12-07T08:42:53;97620.59;;;2.16;100.00
54910;BME280;63189;51.240;9.964;2022-12-07T08:45:20;97619.75;;;2.14;100.00
54910;BME280;63189;51.240;9.964;2022-12-07T08:50:14;97622.28;;;2.17;100.00
54910;BME280;63189;51.240;9.964;2022-12-07T08:52:40;97627.44;;;2.17;100.00
54910;BME280;63189;51.240;9.964;2022-12-07T08:55:07;97625.72;;;2.16;100.00
54910;BME280;63189;51.240;9.964;2022-12-07T08:57:34;97625.72;;;2.16;100.00
54910;BME280;63189;51.240;9.964;2022-12-07T09:00:00;97625.72;;;2.16;100.00
54910;BME280;63189;51.240;9.964;2022-12-07T09:02:26;97630.88;;;2.16;100.00
54910;BME280;63189;51.240;9.964;2022-12-07T09:04:51;97630.00;;;2.15;100.00
54910;BME280;63189;51.240;9.964;2022-12-07T09:07:16;97621.44;;;2.18;100.00
54910;BME280;63189;51.240;9.964;2022-12-07T09:09:42;97632.59;;;2.20;100.00
54910;BME280;63189;51.240;9.964;2022-12-07T09:12:07;97624.84;;;2.18;100.00
54910;BME280;63189;51.240;9.964;2022-12-07T09:14:33;97632.59;;;2.20;100.00
54910;BME280;63189;51.240;9.964;2022-12-07T09:17:09;97634.31;;;2.19;100.00
54910;BME280;63189;51.240;9.964;2022-12-07T09:19:35;97642.88;;;2.20;100.00
54910;BME280;63189;51.240;9.964;2022-12-07T09:22:01;97632.59;;;2.20;100.00
54910;BME280;63189;51.240;9.964;2022-12-07T09:24:26;97634.31;;;2.21;100.00
54910;BME280;63189;51.240;9.964;2022-12-07T09:26:52;97636.88;;;2.22;100.00
54910;BME280;63189;51.240;9.964;2022-12-07T09:29:17;97636.84;;;2.25;100.00
54910;BME280;63189;51.240;9.964;2022-12-07T09:31:42;97634.28;;;2.27;100.00
54910;BME280;63189;51.240;9.964;2022-12-07T09:34:08;97640.25;;;2.29;100.00
54910;BME280;63189;51.240;9.964;2022-12-07T09:36:33;97635.09;;;2.35;100.00
54910;BME280;63189;51.240;9.964;2022-12-07T09:38:58;97630.78;;;2.45;100.00
54910;BME280;63189;51.240;9.964;2022-12-07T09:41:25;97634.22;;;2.51;100.00
54910;BME280;63189;51.240;9.964;2022-12-07T09:43:53;97633.34;;;2.51;100.00
54910;BME280;63189;51.240;9.964;2022-12-07T09:46:23;97629.03;;;2.54;100.00
54910;BME280;63189;51.240;9.964;2022-12-07T09:48:49;97623.03;;;2.57;100.00
54910;BME280;63189;51.240;9.964;2022-12-07T09:51:21;97632.47;;;2.56;100.00
54910;BME280;63189;51.240;9.964;2022-12-07T09:53:47;97628.19;;;2.55;100.00
54910;BME280;63189;51.240;9.964;2022-12-07T09:56:14;97627.31;;;2.63;100.00
54910;BME280;63189;51.240;9.964;2022-12-07T09:58:41;97623.84;;;2.71;100.00
54910;BME280;63189;51.240;9.964;2022-12-07T10:03:34;97626.34;;;2.80;100.00
54910;BME280;63189;51.240;9.964;2022-12-07T10:06:00;97619.47;;;2.81;100.00
54910;BME280;63189;51.240;9.964;2022-12-07T10:08:26;97622.03;;;2.81;100.00
54910;BME280;63189;51.240;9.964;2022-12-07T10:10:53;97612.63;;;2.81;100.00
54910;BME280;63189;51.240;9.964;2022-12-07T10:13:44;97614.31;;;2.79;100.00
54910;BME280;63189;51.240;9.964;2022-12-07T10:18:49;97610.91;;;2.77;100.00
54910;BME280;63189;51.240;9.964;2022-12-07T10:21:17;97610.06;;;2.77;100.00
54910;BME280;63189;51.240;9.964;2022-12-07T10:26:57;97615.22;;;2.77;100.00
54910;BME280;63189;51.240;9.964;2022-12-07T10:29:36;97615.19;;;2.78;100.00
54910;BME280;63189;51.240;9.964;2022-12-07T10:32:03;97610.91;;;2.76;100.00
54910;BME280;63189;51.240;9.964;2022-12-07T10:34:31;97616.03;;;2.79;100.00
54910;BME280;63189;51.240;9.964;2022-12-07T10:39:48;97615.88;;;3.08;100.00
54910;BME280;63189;51.240;9.964;2022-12-07T10:42:28;97604.75;;;3.06;100.00
54910;BME280;63189;51.240;9.964;2022-12-07T10:45:16;97605.63;;;3.05;100.00
54910;BME280;63189;51.240;9.964;2022-12-07T10:50:51;97601.25;;;3.11;100.00
54910;BME280;63189;51.240;9.964;2022-12-07T11:01:39;97601.19;;;3.21;100.00
54910;BME280;63189;51.240;9.964;2022-12-07T11:04:30;97597.69;;;3.31;99.76
54910;BME280;63189;51.240;9.964;2022-12-07T11:12:41;97593.31;;;3.45;97.86
54910;BME280;63189;51.240;9.964;2022-12-07T11:17:56;97580.13;;;3.74;98.24
54910;BME280;63189;51.240;9.964;2022-12-07T11:20:45;97579.03;;;3.99;97.80
54910;BME280;63189;51.240;9.964;2022-12-07T11:23:36;97568.47;;;4.22;99.14
54910;BME280;63189;51.240;9.964;2022-12-07T11:28:44;97568.88;;;4.58;96.39
54910;BME280;63189;51.240;9.964;2022-12-07T11:31:26;97572.38;;;4.54;95.81
54910;BME280;63189;51.240;9.964;2022-12-07T11:34:00;97560.50;;;4.41;93.71
54910;BME280;63189;51.240;9.964;2022-12-07T11:38:58;97565.94;;;4.16;94.16
54910;BME280;63189;51.240;9.964;2022-12-07T11:41:45;97572.28;;;3.88;94.67
54910;BME280;63189;51.240;9.964;2022-12-07T11:49:33;97569.25;;;3.44;96.98
54910;BME280;63189;51.240;9.964;2022-12-07T11:52:04;97570.22;;;3.30;98.06
54910;BME280;63189;51.240;9.964;2022-12-07T11:54:35;97571.16;;;3.18;98.17
54910;BME280;63189;51.240;9.964;2022-12-07T11:57:11;97572.06;;;3.15;99.37
54910;BME280;63189;51.240;9.964;2022-12-07T11:59:44;97572.94;;;3.11;99.69
54910;BME280;63189;51.240;9.964;2022-12-07T12:02:41;97567.91;;;2.96;98.64
54910;BME280;63189;51.240;9.964;2022-12-07T12:05:16;97563.63;;;2.89;99.75
54910;BME280;63189;51.240;9.964;2022-12-07T12:07:44;97568.84;;;2.80;99.45
54910;BME280;63189;51.240;9.964;2022-12-07T12:13:16;97556.91;;;2.73;100.00
54910;BME280;63189;51.240;9.964;2022-12-07T12:18:43;97546.50;;;2.85;100.00
54910;BME280;63189;51.240;9.964;2022-12-07T12:21:16;97553.34;;;2.87;100.00
54910;BME280;63189;51.240;9.964;2022-12-07T12:23:57;97552.47;;;2.90;100.00
54910;BME280;63189;51.240;9.964;2022-12-07T12:26:26;97558.47;;;2.94;100.00
54910;BME280;63189;51.240;9.964;2022-12-07T12:29:02;97553.31;;;2.95;100.00
54910;BME280;63189;51.240;9.964;2022-12-07T12:31:38;97561.84;;;3.00;100.00
54910;BME280;63189;51.240;9.964;2022-12-07T12:34:40;97558.41;;;3.01;100.00
54910;BME280;63189;51.240;9.964;2022-12-07T12:52:59;97524.03;;;3.08;100.00
54910;BME280;63189;51.240;9.964;2022-12-07T13:00:44;97524.94;;;3.04;100.00
54910;BME280;63189;51.240;9.964;2022-12-07T13:03:30;97519.78;;;3.01;100.00
54910;BME280;63189;51.240;9.964;2022-12-07T13:08:50;97513.75;;;3.05;100.00
54910;BME280;63189;51.240;9.964;2022-12-07T13:11:29;97512.84;;;3.09;100.00
54910;BME280;63189;51.240;9.964;2022-12-07T13:20:02;97505.94;;;3.16;100.00
54910;BME280;63189;51.240;9.964;2022-12-07T13:24:57;97513.66;;;3.17;100.00
54910;BME280;63189;51.240;9.964;2022-12-07T13:27:25;97501.66;;;3.13;100.00
54910;BME280;63189;51.240;9.964;2022-12-07T13:29:52;97505.97;;;3.13;99.87
54910;BME280;63189;51.240;9.964;2022-12-07T13:32:28;97500.81;;;3.13;99.97
54910;BME280;63189;51.240;9.964;2022-12-07T13:34:54;97506.81;;;3.13;100.00
54910;BME280;63189;51.240;9.964;2022-12-07T13:39:51;97512.84;;;3.11;99.25
54910;BME280;63189;51.240;9.964;2022-12-07T13:42:27;97516.28;;;3.08;99.18
54910;BME280;63189;51.240;9.964;2022-12-07T13:44:53;97521.47;;;3.07;98.96
54910;BME280;63189;51.240;9.964;2022-12-07T13:47:45;97522.34;;;3.04;98.95
54910;BME280;63189;51.240;9.964;2022-12-07T13:50:25;97512.91;;;3.03;99.37
54910;BME280;63189;51.240;9.964;2022-12-07T13:52:55;97521.50;;;3.01;99.34
54910;BME280;63189;51.240;9.964;2022-12-07T13:55:20;97520.69;;;2.96;98.67
54910;BME280;63189;51.240;9.964;2022-12-07T13:57:49;97516.41;;;2.96;99.86
54910;BME280;63189;51.240;9.964;2022-12-07T14:00:18;97513.84;;;2.90;99.16
54910;BME280;63189;51.240;9.964;2022-12-07T14:03:00;97515.56;;;2.89;99.33
54910;BME280;63189;51.240;9.964;2022-12-07T14:05:28;97500.13;;;2.88;99.92
54910;BME280;63189;51.240;9.964;2022-12-07T14:12:53;97521.63;;;2.81;99.90
54910;BME280;63189;51.240;9.964;2022-12-07T14:15:25;97519.97;;;2.77;99.06
54910;BME280;63189;51.240;9.964;2022-12-07T14:17:54;97524.28;;;2.75;99.92
54910;BME280;63189;51.240;9.964;2022-12-07T14:20:37;97521.72;;;2.72;99.35
54910;BME280;63189;51.240;9.964;2022-12-07T14:23:04;97514.00;;;2.69;99.36
54910;BME280;63189;51.240;9.964;2022-12-07T14:25:50;97514.91;;;2.65;99.67
54910;BME280;63189;51.240;9.964;2022-12-07T14:28:29;97507.19;;;2.63;99.79
54910;BME280;63189;51.240;9.964;2022-12-07T14:30:56;97506.34;;;2.59;99.20
54910;BME280;63189;51.240;9.964;2022-12-07T14:33:21;97508.06;;;2.59;99.87
54910;BME280;63189;51.240;9.964;2022-12-07T14:35:48;97507.19;;;2.60;100.00
54910;BME280;63189;51.240;9.964;2022-12-07T14:38:14;97500.34;;;2.56;99.74
54910;BME280;63189;51.240;9.964;2022-12-07T14:40:40;97504.63;;;2.57;100.00
54910;BME280;63189;51.240;9.964;2022-12-07T14:43:09;97501.22;;;2.56;99.97
54910;BME280;63189;51.240;9.964;2022-12-07T14:45:36;97496.06;;;2.56;100.00
54910;BME280;63189;51.240;9.964;2022-12-07T14:48:02;97496.06;;;2.56;100.00
54910;BME280;63189;51.240;9.964;2022-12-07T14:50:37;97492.63;;;2.56;100.00
54910;BME280;63189;51.240;9.964;2022-12-07T14:53:12;97493.50;;;2.56;100.00
54910;BME280;63189;51.240;9.964;2022-12-07T14:55:38;97490.97;;;2.52;100.00
54910;BME280;63189;51.240;9.964;2022-12-07T14:58:04;97490.97;;;2.52;100.00
54910;BME280;63189;51.240;9.964;2022-12-07T15:00:29;97495.22;;;2.54;100.00
54910;BME280;63189;51.240;9.964;2022-12-07T15:02:55;97484.97;;;2.51;100.00
54910;BME280;63189;51.240;9.964;2022-12-07T15:05:21;97483.25;;;2.52;100.00
54910;BME280;63189;51.240;9.964;2022-12-07T15:07:48;97486.66;;;2.49;100.00